createdAt,value
2019-04-27T00:00:07.893Z,10.60
2019-04-27T00:02:57.696Z,10.50
2019-04-27T00:05:35.339Z,10.50
2019-04-27T00:08:28.421Z,10.40
2019-04-27T00:11:08.506Z,10.50
2019-04-27T00:13:40.406Z,10.40
2019-04-27T00:16:28.047Z,10.40
2019-04-27T00:19:07.211Z,10.40
2019-04-27T00:21:43.041Z,10.40
2019-04-27T00:24:13.528Z,10.30
2019-04-27T00:26:43.368Z,10.40
2019-04-27T00:29:14.012Z,10.40
2019-04-27T00:31:43.582Z,10.40
2019-04-27T00:34:13.362Z,10.40
2019-04-27T00:37:01.248Z,10.40
2019-04-27T00:39:49.576Z,10.40
2019-04-27T00:42:19.273Z,10.40
2019-04-27T00:44:48.691Z,10.40
2019-04-27T00:47:18.033Z,10.40
2019-04-27T00:49:47.375Z,10.40
2019-04-27T00:52:16.748Z,10.40
2019-04-27T00:54:46.089Z,10.40
2019-04-27T00:57:25.972Z,10.40
2019-04-27T01:00:17.024Z,10.50
2019-04-27T01:02:49.916Z,10.40
2019-04-27T01:05:24.407Z,10.50
2019-04-27T01:07:53.793Z,10.50
2019-04-27T01:10:23.393Z,10.50
2019-04-27T01:12:53.172Z,10.50
2019-04-27T01:16:20.107Z,10.50
2019-04-27T01:18:48.918Z,10.50
2019-04-27T01:21:19.422Z,10.40
2019-04-27T01:23:48.828Z,10.40
2019-04-27T01:26:49.934Z,10.40
2019-04-27T01:29:21.059Z,10.50
2019-04-27T01:31:50.432Z,10.50
2019-04-27T01:34:19.797Z,10.50
2019-04-27T01:36:49.322Z,10.60
2019-04-27T01:39:19.020Z,10.60
2019-04-27T01:41:49.117Z,10.70
2019-04-27T01:44:19.435Z,10.70
2019-04-27T01:46:49.024Z,10.70
2019-04-27T01:49:19.415Z,10.70
2019-04-27T01:51:49.328Z,10.70
2019-04-27T01:54:20.280Z,10.70
2019-04-27T01:56:49.658Z,10.80
2019-04-27T01:59:19.958Z,10.80
2019-04-27T02:02:14.456Z,10.70
2019-04-27T02:04:52.072Z,10.70
2019-04-27T02:07:21.440Z,10.80
2019-04-27T02:09:50.838Z,10.80
2019-04-27T02:12:20.198Z,10.80
2019-04-27T02:14:49.548Z,10.80
2019-04-27T02:17:19.252Z,10.70
2019-04-27T02:19:49.407Z,10.70
2019-04-27T02:22:18.886Z,10.70
2019-04-27T02:24:49.313Z,10.70
2019-04-27T02:27:20.553Z,10.70
2019-04-27T02:30:07.462Z,10.70
2019-04-27T02:32:55.762Z,10.70
2019-04-27T02:35:25.145Z,10.70
2019-04-27T02:37:54.500Z,10.70
2019-04-27T02:40:53.231Z,10.60
2019-04-27T02:43:26.397Z,10.50
2019-04-27T02:45:55.733Z,10.50
2019-04-27T02:48:25.130Z,10.50
2019-04-27T02:50:59.762Z,10.50
2019-04-27T02:53:45.838Z,10.50
2019-04-27T02:56:15.178Z,10.50
2019-04-27T02:58:44.562Z,10.50
2019-04-27T03:01:13.911Z,10.40
2019-04-27T03:03:43.248Z,10.40
2019-04-27T03:06:12.650Z,10.40
2019-04-27T03:08:42.687Z,10.30
2019-04-27T03:11:12.282Z,10.30
2019-04-27T03:13:59.834Z,10.40
2019-04-27T03:16:41.329Z,10.40
2019-04-27T03:19:30.986Z,10.30
2019-04-27T03:22:09.739Z,10.30
2019-04-27T03:24:56.233Z,10.30
2019-04-27T03:27:27.196Z,10.30
2019-04-27T03:29:56.575Z,10.30
2019-04-27T03:32:25.954Z,10.30
2019-04-27T03:34:55.306Z,10.30
2019-04-27T03:37:24.670Z,10.20
2019-04-27T03:39:54.044Z,10.20
2019-04-27T03:42:23.416Z,10.20
2019-04-27T03:44:52.808Z,10.20
2019-04-27T03:47:22.623Z,10.20
2019-04-27T03:49:53.268Z,10.10
2019-04-27T03:52:32.986Z,10.10
2019-04-27T03:55:10.131Z,10.10
2019-04-27T03:58:07.144Z,10.10
2019-04-27T04:00:39.683Z,10.10
2019-04-27T04:03:10.684Z,10.10
2019-04-27T04:05:40.431Z,10.10
2019-04-27T04:08:10.645Z,10.10
2019-04-27T04:10:44.396Z,10.10
2019-04-27T04:13:29.533Z,10.10
2019-04-27T04:16:08.010Z,10.10
2019-04-27T04:19:00.401Z,10.10
2019-04-27T04:21:29.948Z,10.20
2019-04-27T04:24:00.958Z,10.20
2019-04-27T04:26:32.722Z,10.20
2019-04-27T04:29:03.701Z,10.20
2019-04-27T04:31:33.585Z,10.20
2019-04-27T04:34:03.229Z,10.20
2019-04-27T04:36:32.848Z,10.30
2019-04-27T04:39:02.477Z,10.30
2019-04-27T04:41:43.090Z,10.30
2019-04-27T04:44:14.638Z,10.30
2019-04-27T04:46:53.098Z,10.40
2019-04-27T04:49:22.693Z,10.40
2019-04-27T04:51:52.304Z,10.50
2019-04-27T04:54:24.518Z,10.50
2019-04-27T04:56:53.138Z,10.50
2019-04-27T04:59:22.689Z,10.50
2019-04-27T05:01:52.261Z,10.50
2019-04-27T05:04:21.895Z,10.60
2019-04-27T05:06:51.474Z,10.60
2019-04-27T05:09:21.086Z,10.70
2019-04-27T05:11:50.755Z,10.70
2019-04-27T05:14:21.408Z,10.80
2019-04-27T05:16:51.017Z,10.80
2019-04-27T05:19:20.676Z,11.00
2019-04-27T05:21:50.241Z,11.10
2019-04-27T05:24:19.862Z,11.10
2019-04-27T05:26:49.793Z,11.20
2019-04-27T05:29:19.386Z,11.30
2019-04-27T05:31:49.168Z,11.30
2019-04-27T05:34:19.730Z,11.30
2019-04-27T05:36:52.448Z,11.40
2019-04-27T05:39:24.844Z,11.30
2019-04-27T05:41:51.902Z,11.30
2019-04-27T05:44:39.649Z,11.30
2019-04-27T05:47:24.055Z,11.40
2019-04-27T05:50:21.929Z,11.40
2019-04-27T05:52:50.018Z,11.40
2019-04-27T05:55:19.897Z,11.40
2019-04-27T05:57:49.821Z,11.40
2019-04-27T06:00:21.021Z,11.60
2019-04-27T06:02:50.740Z,11.70
2019-04-27T06:05:22.637Z,11.90
2019-04-27T06:07:51.507Z,12.00
2019-04-27T06:10:21.079Z,12.10
2019-04-27T06:12:50.646Z,12.20
2019-04-27T06:15:22.106Z,12.30
2019-04-27T06:17:51.672Z,12.10
2019-04-27T06:20:21.236Z,12.10
2019-04-27T06:22:51.006Z,12.10
2019-04-27T06:25:21.551Z,12.30
2019-04-27T06:27:51.522Z,12.40
2019-04-27T06:30:21.232Z,12.50
2019-04-27T06:32:50.774Z,12.70
2019-04-27T06:35:20.376Z,12.80
2019-04-27T06:37:49.965Z,12.90
2019-04-27T06:40:19.562Z,13.00
2019-04-27T06:42:49.168Z,13.10
2019-04-27T06:45:19.687Z,13.40
2019-04-27T06:47:51.320Z,13.50
2019-04-27T06:50:22.428Z,13.50
2019-04-27T06:52:52.070Z,13.60
2019-04-27T06:55:21.651Z,13.60
2019-04-27T06:57:52.379Z,13.70
2019-04-27T07:00:21.955Z,13.70
2019-04-27T07:02:51.525Z,13.60
2019-04-27T07:05:21.077Z,13.70
2019-04-27T07:07:50.721Z,13.90
2019-04-27T07:10:20.431Z,14.00
2019-04-27T07:12:54.327Z,14.10
2019-04-27T07:15:24.059Z,14.20
2019-04-27T07:17:53.707Z,14.10
2019-04-27T07:20:23.354Z,14.20
2019-04-27T07:22:53.009Z,14.20
2019-04-27T07:25:22.730Z,14.20
2019-04-27T07:27:52.329Z,14.20
2019-04-27T07:30:21.938Z,14.50
2019-04-27T07:32:51.514Z,14.70
2019-04-27T07:35:21.118Z,14.90
2019-04-27T07:37:50.902Z,15.10
2019-04-27T07:40:20.627Z,15.10
2019-04-27T07:42:53.669Z,15.10
2019-04-27T07:45:30.491Z,15.30
2019-04-27T07:48:00.232Z,15.40
2019-04-27T07:50:29.984Z,15.50
2019-04-27T07:53:03.665Z,15.60
2019-04-27T07:55:33.258Z,15.80
2019-04-27T07:58:05.116Z,16.00
2019-04-27T08:00:34.524Z,16.20
2019-04-27T08:03:04.216Z,16.30
2019-04-27T08:05:34.231Z,16.30
2019-04-27T08:08:03.895Z,16.40
2019-04-27T08:10:33.564Z,16.10
2019-04-27T08:13:03.179Z,15.90
2019-04-27T08:15:32.877Z,15.80
2019-04-27T08:18:02.511Z,16.00
2019-04-27T08:20:32.294Z,16.10
2019-04-27T08:23:01.935Z,16.00
2019-04-27T08:25:31.530Z,15.90
2019-04-27T08:28:34.968Z,15.90
2019-04-27T08:31:23.431Z,15.80
2019-04-27T08:33:52.982Z,15.70
2019-04-27T08:36:22.672Z,15.50
2019-04-27T08:38:52.266Z,15.30
2019-04-27T08:41:21.881Z,15.30
2019-04-27T08:43:51.392Z,15.10
2019-04-27T08:46:20.932Z,15.20
2019-04-27T08:48:50.488Z,15.40
2019-04-27T08:51:20.142Z,15.50
2019-04-27T08:53:50.203Z,15.50
2019-04-27T08:56:19.832Z,15.90
2019-04-27T08:58:49.767Z,16.30
2019-04-27T09:01:20.809Z,16.60
2019-04-27T09:03:50.856Z,16.90
2019-04-27T09:06:20.718Z,17.10
2019-04-27T09:09:05.078Z,17.30
2019-04-27T09:11:44.910Z,17.40
2019-04-27T09:14:26.518Z,17.60
2019-04-27T09:17:06.307Z,17.50
2019-04-27T09:19:53.222Z,17.80
2019-04-27T09:22:23.233Z,17.70
2019-04-27T09:24:52.812Z,17.70
2019-04-27T09:27:22.381Z,17.40
2019-04-27T09:29:51.993Z,17.50
2019-04-27T09:32:21.783Z,17.70
2019-04-27T09:34:51.335Z,18.00
2019-04-27T09:37:20.958Z,18.40
2019-04-27T09:39:50.615Z,18.60
2019-04-27T09:42:20.188Z,18.90
2019-04-27T09:44:49.877Z,18.80
2019-04-27T09:47:19.430Z,18.70
2019-04-27T09:49:49.172Z,18.50
2019-04-27T09:52:26.264Z,18.40
2019-04-27T09:54:49.939Z,18.50
2019-04-27T09:57:19.546Z,18.60
2019-04-27T09:59:49.176Z,18.70
2019-04-27T10:02:18.860Z,18.60
2019-04-27T10:04:48.649Z,18.70
2019-04-27T10:07:18.255Z,18.30
2019-04-27T10:09:47.971Z,18.10
2019-04-27T10:12:17.589Z,17.90
2019-04-27T10:14:47.738Z,18.00
2019-04-27T10:17:17.465Z,18.30
2019-04-27T10:19:47.028Z,18.70
2019-04-27T10:22:16.688Z,19.10
2019-04-27T10:24:47.135Z,19.20
2019-04-27T10:27:16.803Z,19.40
2019-04-27T10:29:46.866Z,19.40
2019-04-27T10:32:16.500Z,19.80
2019-04-27T10:34:46.018Z,19.80
2019-04-27T10:37:16.202Z,19.80
2019-04-27T10:39:46.162Z,19.60
2019-04-27T10:42:15.835Z,19.40
2019-04-27T10:44:46.201Z,19.40
2019-04-27T10:47:16.296Z,19.80
2019-04-27T10:49:46.532Z,19.80
2019-04-27T10:52:17.279Z,20.00
2019-04-27T10:54:46.881Z,20.00
2019-04-27T10:57:16.529Z,20.20
2019-04-27T10:59:46.216Z,20.30
2019-04-27T11:02:15.933Z,20.50
2019-04-27T11:04:52.046Z,20.50
2019-04-27T11:07:23.613Z,20.50
2019-04-27T11:09:53.321Z,20.60
2019-04-27T11:12:23.034Z,20.80
2019-04-27T11:14:52.819Z,20.90
2019-04-27T11:17:26.705Z,20.90
2019-04-27T11:19:56.518Z,20.80
2019-04-27T11:22:26.796Z,20.80
2019-04-27T11:24:56.990Z,20.50
2019-04-27T11:27:26.876Z,20.20
2019-04-27T11:29:59.928Z,20.50
2019-04-27T11:32:29.771Z,20.60
2019-04-27T11:35:22.391Z,20.60
2019-04-27T11:37:52.663Z,20.20
2019-04-27T11:40:23.452Z,20.10
2019-04-27T11:43:01.218Z,20.20
2019-04-27T11:45:36.625Z,20.20
2019-04-27T11:48:50.488Z,20.30
2019-04-27T11:51:27.475Z,20.40
2019-04-27T11:54:27.819Z,20.10
2019-04-27T11:56:57.926Z,19.80
2019-04-27T11:59:27.291Z,19.50
2019-04-27T12:01:56.639Z,19.60
2019-04-27T12:04:26.359Z,19.80
2019-04-27T12:06:56.477Z,19.90
2019-04-27T12:09:25.910Z,20.10
2019-04-27T12:11:57.432Z,19.70
2019-04-27T12:14:26.399Z,19.50
2019-04-27T12:16:56.253Z,19.60
2019-04-27T12:19:26.802Z,19.60
2019-04-27T12:21:56.557Z,19.80
2019-04-27T12:24:26.756Z,19.90
2019-04-27T12:27:15.970Z,19.90
2019-04-27T12:30:13.126Z,19.80
2019-04-27T12:32:42.525Z,19.80
2019-04-27T12:35:11.864Z,20.00
2019-04-27T12:37:41.241Z,20.00
2019-04-27T12:40:11.038Z,20.10
2019-04-27T12:42:40.425Z,20.10
2019-04-27T12:45:10.044Z,20.40
2019-04-27T12:47:39.433Z,20.70
2019-04-27T12:50:10.618Z,20.90
2019-04-27T12:52:40.754Z,21.40
2019-04-27T12:55:40.995Z,21.70
2019-04-27T12:58:36.544Z,22.20
2019-04-27T13:01:07.551Z,22.50
2019-04-27T13:03:36.995Z,22.00
2019-04-27T13:06:06.366Z,21.40
2019-04-27T13:08:36.162Z,21.00
2019-04-27T13:11:05.992Z,20.80
2019-04-27T13:13:36.803Z,20.60
2019-04-27T13:16:06.607Z,20.50
2019-04-27T13:18:36.167Z,20.50
2019-04-27T13:21:05.747Z,20.70
2019-04-27T13:23:37.041Z,20.60
2019-04-27T13:26:06.326Z,20.60
2019-04-27T13:28:35.904Z,20.50
2019-04-27T13:31:06.722Z,20.70
2019-04-27T13:33:36.528Z,20.90
2019-04-27T13:36:07.610Z,20.80
2019-04-27T13:38:37.138Z,20.80
2019-04-27T13:41:10.153Z,20.90
2019-04-27T13:43:39.805Z,21.00
2019-04-27T13:46:26.880Z,21.10
2019-04-27T13:49:13.607Z,21.10
2019-04-27T13:51:51.042Z,21.00
2019-04-27T13:54:26.066Z,21.10
2019-04-27T13:56:51.415Z,21.00
2019-04-27T13:59:21.841Z,21.10
2019-04-27T14:01:51.257Z,21.40
2019-04-27T14:04:20.645Z,21.20
2019-04-27T14:06:50.024Z,21.30
2019-04-27T14:09:19.395Z,21.30
2019-04-27T14:11:48.750Z,21.40
2019-04-27T14:14:18.444Z,21.40
2019-04-27T14:16:49.125Z,21.40
2019-04-27T14:19:18.916Z,21.30
2019-04-27T14:21:49.017Z,21.20
2019-04-27T14:24:27.846Z,20.80
2019-04-27T14:26:49.454Z,21.00
2019-04-27T14:29:18.979Z,20.90
2019-04-27T14:31:49.733Z,21.00
2019-04-27T14:34:19.144Z,20.90
2019-04-27T14:36:48.939Z,20.80
2019-04-27T14:39:18.600Z,20.80
2019-04-27T14:41:49.114Z,20.90
2019-04-27T14:44:18.801Z,20.70
2019-04-27T14:46:48.559Z,20.50
2019-04-27T14:49:19.831Z,20.60
2019-04-27T14:51:49.291Z,20.60
2019-04-27T14:54:18.683Z,20.50
2019-04-27T14:56:48.890Z,20.50
2019-04-27T14:59:18.791Z,20.40
2019-04-27T15:01:48.772Z,20.10
2019-04-27T15:04:18.150Z,19.80
2019-04-27T15:06:47.552Z,19.70
2019-04-27T15:09:18.039Z,19.70
2019-04-27T15:11:49.360Z,19.60
2019-04-27T15:14:20.665Z,19.80
2019-04-27T15:16:49.942Z,19.60
2019-04-27T15:19:27.974Z,19.00
2019-04-27T15:21:58.853Z,18.50
2019-04-27T15:24:28.340Z,18.50
2019-04-27T15:27:00.684Z,18.30
2019-04-27T15:29:30.462Z,18.50
2019-04-27T15:32:04.192Z,18.50
2019-04-27T15:34:48.138Z,18.60
2019-04-27T15:37:34.121Z,18.60
2019-04-27T15:40:23.099Z,18.40
2019-04-27T15:43:15.970Z,18.30
2019-04-27T15:45:45.324Z,18.10
2019-04-27T15:48:14.889Z,18.20
2019-04-27T15:50:45.376Z,18.30
2019-04-27T15:53:15.040Z,18.30
2019-04-27T15:55:44.649Z,18.20
2019-04-27T15:58:18.493Z,18.20
2019-04-27T16:00:45.496Z,18.20
2019-04-27T16:03:15.144Z,18.10
2019-04-27T16:05:44.805Z,18.10
2019-04-27T16:08:18.766Z,18.20
2019-04-27T16:10:48.830Z,18.30
2019-04-27T16:13:18.526Z,18.30
2019-04-27T16:15:54.156Z,18.20
2019-04-27T16:18:19.516Z,18.20
2019-04-27T16:20:49.142Z,18.00
2019-04-27T16:23:18.891Z,18.00
2019-04-27T16:25:51.283Z,17.90
2019-04-27T16:28:19.981Z,17.90
2019-04-27T16:30:53.115Z,18.00
2019-04-27T16:33:23.540Z,18.00
2019-04-27T16:35:53.124Z,17.80
2019-04-27T16:38:38.827Z,17.80
2019-04-27T16:41:08.610Z,17.60
2019-04-27T16:43:38.584Z,17.60
2019-04-27T16:46:08.920Z,17.60
2019-04-27T16:48:39.073Z,17.60
2019-04-27T16:51:11.426Z,17.60
2019-04-27T16:53:41.345Z,17.60
2019-04-27T16:56:15.941Z,17.60
2019-04-27T16:58:49.014Z,17.60
2019-04-27T17:01:22.062Z,17.50
2019-04-27T17:03:51.601Z,17.50
2019-04-27T17:06:21.551Z,17.40
2019-04-27T17:08:51.579Z,17.30
2019-04-27T17:11:21.459Z,17.30
2019-04-27T17:13:56.213Z,17.30
2019-04-27T17:16:44.985Z,17.30
2019-04-27T17:19:20.504Z,17.40
2019-04-27T17:21:50.082Z,17.40
2019-04-27T17:24:43.996Z,17.50
2019-04-27T17:27:11.606Z,17.50
2019-04-27T17:29:42.131Z,17.40
2019-04-27T17:32:33.651Z,17.40
2019-04-27T17:35:05.634Z,17.30
2019-04-27T17:37:34.331Z,17.30
2019-04-27T17:40:03.950Z,17.30
2019-04-27T17:42:33.610Z,17.20
2019-04-27T17:45:06.494Z,17.10
2019-04-27T17:47:36.116Z,16.90
2019-04-27T17:50:06.432Z,16.80
2019-04-27T17:52:37.803Z,16.80
2019-04-27T17:55:08.010Z,16.70
2019-04-27T17:57:39.100Z,16.60
2019-04-27T18:00:10.530Z,16.50
2019-04-27T18:02:42.384Z,16.50
2019-04-27T18:05:13.704Z,16.50
2019-04-27T18:07:46.310Z,16.40
2019-04-27T18:10:22.720Z,16.50
2019-04-27T18:12:48.533Z,16.40
2019-04-27T18:15:19.276Z,16.40
2019-04-27T18:17:52.163Z,16.30
2019-04-27T18:20:24.462Z,16.20
2019-04-27T18:23:02.720Z,16.10
2019-04-27T18:25:39.549Z,16.00
2019-04-27T18:28:16.494Z,15.90
2019-04-27T18:31:15.677Z,15.80
2019-04-27T18:33:42.818Z,15.70
2019-04-27T18:36:14.376Z,15.70
2019-04-27T18:38:44.024Z,15.60
2019-04-27T18:41:13.594Z,15.50
2019-04-27T18:43:50.663Z,15.40
2019-04-27T18:46:18.862Z,15.50
2019-04-27T18:49:04.802Z,15.40
2019-04-27T18:52:04.338Z,15.40
2019-04-27T18:54:33.161Z,15.20
2019-04-27T18:57:04.869Z,15.20
2019-04-27T18:59:33.922Z,15.20
2019-04-27T19:02:03.601Z,15.20
2019-04-27T19:04:33.444Z,15.20
2019-04-27T19:07:03.089Z,15.30
2019-04-27T19:09:32.691Z,15.40
2019-04-27T19:12:02.338Z,15.40
2019-04-27T19:14:31.934Z,15.50
2019-04-27T19:17:01.450Z,15.60
2019-04-27T19:19:31.092Z,15.60
2019-04-27T19:22:00.671Z,15.60
2019-04-27T19:24:30.266Z,15.50
2019-04-27T19:27:20.587Z,15.30
2019-04-27T19:29:54.554Z,15.20
2019-04-27T19:32:24.896Z,14.90
2019-04-27T19:34:54.574Z,14.70
2019-04-27T19:37:24.199Z,14.60
2019-04-27T19:39:53.889Z,14.40
2019-04-27T19:42:23.411Z,14.30
2019-04-27T19:44:53.013Z,14.20
2019-04-27T19:47:22.692Z,14.10
2019-04-27T19:49:52.269Z,13.90
2019-04-27T19:52:22.779Z,13.90
2019-04-27T19:54:52.449Z,13.80
2019-04-27T19:57:32.696Z,13.70
2019-04-27T19:59:56.064Z,13.60
2019-04-27T20:02:25.559Z,13.60
2019-04-27T20:05:03.474Z,13.40
2019-04-27T20:07:33.085Z,13.40
2019-04-27T20:10:04.467Z,13.30
2019-04-27T20:12:34.091Z,13.30
2019-04-27T20:15:04.339Z,13.20
2019-04-27T20:17:34.076Z,13.20
2019-04-27T20:20:03.924Z,13.10
2019-04-27T20:22:33.633Z,13.10
2019-04-27T20:25:03.230Z,13.00
2019-04-27T20:27:45.186Z,13.00
2019-04-27T20:30:06.455Z,12.90
2019-04-27T20:32:36.161Z,12.80
2019-04-27T20:35:06.219Z,12.80
2019-04-27T20:37:35.919Z,12.60
2019-04-27T20:40:06.301Z,12.60
2019-04-27T20:42:36.091Z,12.60
2019-04-27T20:45:06.017Z,12.60
2019-04-27T20:47:35.609Z,12.60
2019-04-27T20:50:05.643Z,12.60
2019-04-27T20:52:56.997Z,12.50
2019-04-27T20:55:26.661Z,12.50
2019-04-27T20:58:01.771Z,12.50
2019-04-27T21:00:27.651Z,12.40
2019-04-27T21:03:21.934Z,12.50
2019-04-27T21:06:07.212Z,12.40
2019-04-27T21:08:38.107Z,12.30
2019-04-27T21:11:07.793Z,12.20
2019-04-27T21:13:37.393Z,12.10
2019-04-27T21:16:07.107Z,12.00
2019-04-27T21:18:36.692Z,11.80
2019-04-27T21:21:06.283Z,11.80
2019-04-27T21:23:35.898Z,11.80
2019-04-27T21:26:05.474Z,11.70
2019-04-27T21:28:35.043Z,11.70
2019-04-27T21:31:04.630Z,11.60
2019-04-27T21:33:34.226Z,11.60
2019-04-27T21:36:04.069Z,11.60
2019-04-27T21:38:33.582Z,11.60
2019-04-27T21:41:03.398Z,11.60
2019-04-27T21:43:33.095Z,11.60
2019-04-27T21:46:02.728Z,11.60
2019-04-27T21:48:32.122Z,11.60
2019-04-27T21:51:01.620Z,11.70
2019-04-27T21:53:47.979Z,11.70
2019-04-27T21:56:17.662Z,11.60
2019-04-27T21:58:47.297Z,11.50
2019-04-27T22:01:27.911Z,11.40
2019-04-27T22:03:57.451Z,11.40
2019-04-27T22:06:27.205Z,11.40
2019-04-27T22:08:56.801Z,11.40
2019-04-27T22:11:26.543Z,11.40
2019-04-27T22:13:56.114Z,11.40
2019-04-27T22:16:25.928Z,11.40
2019-04-27T22:18:55.531Z,11.40
2019-04-27T22:21:25.114Z,11.50
2019-04-27T22:24:21.081Z,11.50
2019-04-27T22:26:51.776Z,11.50
2019-04-27T22:29:22.176Z,11.60
2019-04-27T22:31:51.902Z,11.60
2019-04-27T22:34:22.008Z,11.60
2019-04-27T22:36:51.666Z,11.60
2019-04-27T22:39:40.113Z,11.50
2019-04-27T22:42:28.577Z,11.50
2019-04-27T22:45:17.096Z,11.50
2019-04-27T22:47:46.739Z,11.40
2019-04-27T22:50:16.597Z,11.40
2019-04-27T22:52:46.189Z,11.40
2019-04-27T22:55:15.723Z,11.40
2019-04-27T22:57:51.602Z,11.40
2019-04-27T23:00:38.448Z,11.30
2019-04-27T23:03:10.966Z,11.30
2019-04-27T23:05:42.940Z,11.30
2019-04-27T23:08:11.983Z,11.30
2019-04-27T23:10:41.622Z,11.30
2019-04-27T23:13:13.164Z,11.30
2019-04-27T23:15:45.656Z,11.20
2019-04-27T23:18:15.370Z,11.20
2019-04-27T23:20:45.306Z,11.20
2019-04-27T23:23:14.899Z,11.20
2019-04-27T23:25:44.392Z,11.20
2019-04-27T23:28:14.061Z,11.30
2019-04-27T23:31:02.615Z,11.30
2019-04-27T23:33:32.387Z,11.30
2019-04-27T23:36:02.177Z,11.30
2019-04-27T23:38:31.819Z,11.30
2019-04-27T23:41:01.875Z,11.40
2019-04-27T23:43:31.507Z,11.40
2019-04-27T23:46:01.672Z,11.50
2019-04-27T23:48:32.171Z,11.50
2019-04-27T23:51:12.114Z,11.50
2019-04-27T23:53:41.865Z,11.60
2019-04-27T23:56:11.526Z,11.60
2019-04-27T23:58:41.072Z,11.60
